createdAt,value
2019-02-14T00:00:49.822Z,7.70
2019-02-14T00:01:49.999Z,7.00
2019-02-14T00:02:50.193Z,7.30
2019-02-14T00:03:52.971Z,7.20
2019-02-14T00:04:50.474Z,7.30
2019-02-14T00:05:50.659Z,7.00
2019-02-14T00:06:50.867Z,7.10
2019-02-14T00:07:50.966Z,7.60
2019-02-14T00:08:51.162Z,7.40
2019-02-14T00:09:51.378Z,7.90
2019-02-14T00:10:51.564Z,7.60
2019-02-14T00:11:51.779Z,7.80
2019-02-14T00:12:51.977Z,7.60
2019-02-14T00:13:56.637Z,7.80
2019-02-14T00:14:52.308Z,7.80
2019-02-14T00:15:52.496Z,7.80
2019-02-14T00:16:52.615Z,6.90
2019-02-14T00:17:52.698Z,7.10
2019-02-14T00:18:52.903Z,7.30
2019-02-14T00:19:53.097Z,7.20
2019-02-14T00:20:53.285Z,6.60
2019-02-14T00:21:53.510Z,7.80
2019-02-14T00:22:53.724Z,7.30
2019-02-14T00:23:53.821Z,7.40
2019-02-14T00:24:54.013Z,7.20
2019-02-14T00:25:54.185Z,7.60
2019-02-14T00:26:54.395Z,7.10
2019-02-14T00:27:54.596Z,7.50
2019-02-14T00:28:54.782Z,7.30
2019-02-14T00:29:54.972Z,7.30
2019-02-14T00:30:55.154Z,7.50
2019-02-14T00:31:55.355Z,7.30
2019-02-14T00:32:55.549Z,7.80
2019-02-14T00:33:55.760Z,7.60
2019-02-14T00:34:55.946Z,7.60
2019-02-14T00:35:56.127Z,7.80
2019-02-14T00:36:56.329Z,7.90
2019-02-14T00:37:56.531Z,7.40
2019-02-14T00:38:56.742Z,7.60
2019-02-14T00:39:56.933Z,7.70
2019-02-14T00:40:57.130Z,7.40
2019-02-14T00:41:57.332Z,8.20
2019-02-14T00:42:57.535Z,7.90
2019-02-14T00:43:57.715Z,7.70
2019-02-14T00:44:57.893Z,7.80
2019-02-14T00:45:58.089Z,7.60
2019-02-14T00:46:58.298Z,7.40
2019-02-14T00:47:58.493Z,8.00
2019-02-14T00:48:58.695Z,7.70
2019-02-14T00:49:58.905Z,8.00
2019-02-14T00:50:58.992Z,7.70
2019-02-14T00:51:59.208Z,8.60
2019-02-14T00:52:59.405Z,8.30
2019-02-14T00:53:59.615Z,8.50
2019-02-14T00:54:59.684Z,7.50
2019-02-14T00:55:59.931Z,7.80
2019-02-14T00:56:59.989Z,7.70
2019-02-14T00:58:00.201Z,8.20
2019-02-14T00:59:00.305Z,8.80
2019-02-14T01:00:00.522Z,7.70
2019-02-14T01:01:00.725Z,7.60
2019-02-14T01:02:00.900Z,8.40
2019-02-14T01:03:01.082Z,8.70
2019-02-14T01:04:01.260Z,7.80
2019-02-14T01:05:01.489Z,8.00
2019-02-14T01:06:01.668Z,8.50
2019-02-14T01:07:01.854Z,8.60
2019-02-14T01:08:02.064Z,8.10
2019-02-14T01:09:02.247Z,7.80
2019-02-14T01:10:02.464Z,7.70
2019-02-14T01:11:02.522Z,8.30
2019-02-14T01:12:02.700Z,7.90
2019-02-14T01:13:02.914Z,7.60
2019-02-14T01:14:03.097Z,7.80
2019-02-14T01:15:03.312Z,7.80
2019-02-14T01:16:03.487Z,7.70
2019-02-14T01:17:03.671Z,7.60
2019-02-14T01:18:03.878Z,7.80
2019-02-14T01:19:04.051Z,7.20
2019-02-14T01:20:04.283Z,8.20
2019-02-14T01:21:04.348Z,7.80
2019-02-14T01:22:04.536Z,7.70
2019-02-14T01:23:04.867Z,7.60
2019-02-14T01:24:04.932Z,8.00
2019-02-14T01:25:05.116Z,7.90
2019-02-14T01:26:05.303Z,8.00
2019-02-14T01:27:05.516Z,8.10
2019-02-14T01:28:05.718Z,8.60
2019-02-14T01:29:05.920Z,8.20
2019-02-14T01:30:06.100Z,8.70
2019-02-14T01:31:06.303Z,8.20
2019-02-14T01:32:06.378Z,8.40
2019-02-14T01:33:06.572Z,8.40
2019-02-14T01:34:06.803Z,8.60
2019-02-14T01:35:06.933Z,8.30
2019-02-14T01:36:07.070Z,8.20
2019-02-14T01:37:07.299Z,7.80
2019-02-14T01:38:07.510Z,8.20
2019-02-14T01:39:07.695Z,7.80
2019-02-14T01:40:07.874Z,8.10
2019-02-14T01:41:08.088Z,7.60
2019-02-14T01:42:08.297Z,8.20
2019-02-14T01:43:08.495Z,8.20
2019-02-14T01:44:08.683Z,7.60
2019-02-14T01:45:13.513Z,7.90
2019-02-14T01:46:13.916Z,8.40
2019-02-14T01:47:11.652Z,8.10
2019-02-14T01:48:13.155Z,8.40
2019-02-14T01:49:10.712Z,8.10
2019-02-14T01:50:11.349Z,8.40
2019-02-14T01:51:11.079Z,8.30
2019-02-14T01:52:10.867Z,8.50
2019-02-14T01:53:10.156Z,8.00
2019-02-14T01:54:10.588Z,8.30
2019-02-14T01:55:10.380Z,8.10
2019-02-14T01:56:10.491Z,8.40
2019-02-14T01:57:12.688Z,8.40
2019-02-14T01:58:11.796Z,8.30
2019-02-14T01:59:11.508Z,8.00
2019-02-14T02:00:11.046Z,8.10
2019-02-14T02:01:11.197Z,7.90
2019-02-14T02:02:11.689Z,8.00
2019-02-14T02:03:12.267Z,7.90
2019-02-14T02:04:11.790Z,7.90
2019-02-14T02:05:11.759Z,8.80
2019-02-14T02:06:13.059Z,8.10
2019-02-14T02:07:12.409Z,8.40
2019-02-14T02:08:12.637Z,7.80
2019-02-14T02:09:12.481Z,7.60
2019-02-14T02:10:12.603Z,8.20
2019-02-14T02:11:12.658Z,8.00
2019-02-14T02:12:12.863Z,8.00
2019-02-14T02:13:13.063Z,8.00
2019-02-14T02:14:13.257Z,7.80
2019-02-14T02:15:13.432Z,8.20
2019-02-14T02:16:13.675Z,8.20
2019-02-14T02:17:13.769Z,8.30
2019-02-14T02:18:13.827Z,8.40
2019-02-14T02:19:14.021Z,8.20
2019-02-14T02:20:14.199Z,7.80
2019-02-14T02:21:14.379Z,8.20
2019-02-14T02:22:14.580Z,8.40
2019-02-14T02:23:14.812Z,7.30
2019-02-14T02:24:14.878Z,8.10
2019-02-14T02:25:15.062Z,7.60
2019-02-14T02:26:15.264Z,8.20
2019-02-14T02:27:15.473Z,7.60
2019-02-14T02:28:15.644Z,7.60
2019-02-14T02:29:15.841Z,8.00
2019-02-14T02:30:16.042Z,8.30
2019-02-14T02:31:16.215Z,8.20
2019-02-14T02:32:16.389Z,7.60
2019-02-14T02:33:16.597Z,7.70
2019-02-14T02:34:16.681Z,7.60
2019-02-14T02:35:16.874Z,7.50
2019-02-14T02:36:17.110Z,7.80
2019-02-14T02:37:17.165Z,8.00
2019-02-14T02:38:17.351Z,8.10
2019-02-14T02:39:17.574Z,7.50
2019-02-14T02:40:17.640Z,8.10
2019-02-14T02:41:17.873Z,8.10
2019-02-14T02:42:17.927Z,8.40
2019-02-14T02:43:18.150Z,7.60
2019-02-14T02:44:18.202Z,8.10
2019-02-14T02:45:18.416Z,7.90
2019-02-14T02:46:18.593Z,7.70
2019-02-14T02:47:18.793Z,8.00
2019-02-14T02:48:19.007Z,8.20
2019-02-14T02:49:19.184Z,8.10
2019-02-14T02:50:19.303Z,8.20
2019-02-14T02:51:19.505Z,8.20
2019-02-14T02:52:19.696Z,8.00
2019-02-14T02:53:19.878Z,7.80
2019-02-14T02:54:20.080Z,7.40
2019-02-14T02:55:20.273Z,7.90
2019-02-14T02:56:20.474Z,7.90
2019-02-14T02:57:20.653Z,8.10
2019-02-14T02:58:20.888Z,7.60
2019-02-14T02:59:20.979Z,7.60
2019-02-14T03:00:21.167Z,8.40
2019-02-14T03:01:21.341Z,7.60
2019-02-14T03:02:21.627Z,8.10
2019-02-14T03:03:21.751Z,8.10
2019-02-14T03:04:21.935Z,7.80
2019-02-14T03:05:22.135Z,7.40
2019-02-14T03:06:22.435Z,7.60
2019-02-14T03:07:22.503Z,7.90
2019-02-14T03:08:22.713Z,7.20
2019-02-14T03:09:22.888Z,7.90
2019-02-14T03:10:23.095Z,7.60
2019-02-14T03:11:23.282Z,8.20
2019-02-14T03:12:23.485Z,8.00
2019-02-14T03:13:23.669Z,7.40
2019-02-14T03:14:23.880Z,7.10
2019-02-14T03:15:24.108Z,8.00
2019-02-14T03:16:24.179Z,7.50
2019-02-14T03:17:24.416Z,7.60
2019-02-14T03:18:24.478Z,7.30
2019-02-14T03:19:24.683Z,8.20
2019-02-14T03:20:24.867Z,7.80
2019-02-14T03:21:25.080Z,7.30
2019-02-14T03:22:25.275Z,7.70
2019-02-14T03:23:25.473Z,7.70
2019-02-14T03:24:25.658Z,7.10
2019-02-14T03:25:25.882Z,7.10
2019-02-14T03:26:26.078Z,7.20
2019-02-14T03:27:26.270Z,7.60
2019-02-14T03:28:26.459Z,7.90
2019-02-14T03:29:26.650Z,7.40
2019-02-14T03:30:26.842Z,7.50
2019-02-14T03:31:27.024Z,7.50
2019-02-14T03:32:27.220Z,8.30
2019-02-14T03:33:27.419Z,7.50
2019-02-14T03:34:27.604Z,7.30
2019-02-14T03:35:27.817Z,7.20
2019-02-14T03:36:28.013Z,7.80
2019-02-14T03:37:28.209Z,7.20
2019-02-14T03:38:28.394Z,7.30
2019-02-14T03:39:28.625Z,7.80
2019-02-14T03:40:28.676Z,7.60
2019-02-14T03:41:28.852Z,7.50
2019-02-14T03:42:29.081Z,7.40
2019-02-14T03:43:29.199Z,7.60
2019-02-14T03:44:29.377Z,7.30
2019-02-14T03:45:29.577Z,6.90
2019-02-14T03:46:29.767Z,7.30
2019-02-14T03:47:29.975Z,6.90
2019-02-14T03:48:30.068Z,7.40
2019-02-14T03:49:30.327Z,7.70
2019-02-14T03:50:30.401Z,7.50
2019-02-14T03:51:30.602Z,7.90
2019-02-14T03:52:30.799Z,7.50
2019-02-14T03:53:30.993Z,7.40
2019-02-14T03:54:31.236Z,6.80
2019-02-14T03:55:31.332Z,7.50
2019-02-14T03:56:31.524Z,6.90
2019-02-14T03:57:31.742Z,7.40
2019-02-14T03:58:31.937Z,7.80
2019-02-14T03:59:32.126Z,7.40
2019-02-14T04:00:32.361Z,6.70
2019-02-14T04:01:32.550Z,7.20
2019-02-14T04:02:32.748Z,7.20
2019-02-14T04:03:32.984Z,7.70
2019-02-14T04:04:33.193Z,7.00
2019-02-14T04:05:33.402Z,7.50
2019-02-14T04:06:33.615Z,7.10
2019-02-14T04:07:33.796Z,7.50
2019-02-14T04:08:34.007Z,7.00
2019-02-14T04:09:34.200Z,7.00
2019-02-14T04:10:34.391Z,7.30
2019-02-14T04:11:34.592Z,7.20
2019-02-14T04:12:34.794Z,7.10
2019-02-14T04:13:35.005Z,6.50
2019-02-14T04:14:35.200Z,7.70
2019-02-14T04:15:35.375Z,7.50
2019-02-14T04:16:35.585Z,7.60
2019-02-14T04:17:35.764Z,7.70
2019-02-14T04:18:35.947Z,7.00
2019-02-14T04:19:36.157Z,7.40
2019-02-14T04:20:36.388Z,6.80
2019-02-14T04:21:36.449Z,7.60
2019-02-14T04:22:36.639Z,7.10
2019-02-14T04:23:36.822Z,7.80
2019-02-14T04:24:37.019Z,6.90
2019-02-14T04:25:38.270Z,7.20
2019-02-14T04:26:37.421Z,7.40
2019-02-14T04:27:37.510Z,7.20
2019-02-14T04:28:37.722Z,7.60
2019-02-14T04:29:37.938Z,7.00
2019-02-14T04:30:38.015Z,7.00
2019-02-14T04:31:38.197Z,7.50
2019-02-14T04:32:38.402Z,7.30
2019-02-14T04:33:38.601Z,7.00
2019-02-14T04:34:38.807Z,6.90
2019-02-14T04:35:39.007Z,6.60
2019-02-14T04:36:39.199Z,6.80
2019-02-14T04:37:39.387Z,7.00
2019-02-14T04:38:39.527Z,7.20
2019-02-14T04:39:39.764Z,7.10
2019-02-14T04:40:39.823Z,6.80
2019-02-14T04:41:40.024Z,7.60
2019-02-14T04:42:40.214Z,7.00
2019-02-14T04:43:40.410Z,6.90
2019-02-14T04:44:40.612Z,7.10
2019-02-14T04:45:40.816Z,7.60
2019-02-14T04:46:40.993Z,7.00
2019-02-14T04:47:43.641Z,7.20
2019-02-14T04:48:41.335Z,7.10
2019-02-14T04:49:42.021Z,7.40
2019-02-14T04:50:41.755Z,7.40
2019-02-14T04:51:41.815Z,7.00
2019-02-14T04:52:42.018Z,6.90
2019-02-14T04:53:42.198Z,7.40
2019-02-14T04:54:42.388Z,7.00
2019-02-14T04:55:42.601Z,6.70
2019-02-14T04:56:42.818Z,7.30
2019-02-14T04:57:42.925Z,7.70
2019-02-14T04:58:43.011Z,6.90
2019-02-14T04:59:43.193Z,7.00
2019-02-14T05:00:43.415Z,7.10
2019-02-14T05:01:43.614Z,7.20
2019-02-14T05:02:43.790Z,7.10
2019-02-14T05:03:44.005Z,7.30
2019-02-14T05:04:44.064Z,7.20
2019-02-14T05:05:44.263Z,6.80
2019-02-14T05:06:44.597Z,7.00
2019-02-14T05:07:44.645Z,6.60
2019-02-14T05:08:44.858Z,7.60
2019-02-14T05:09:45.056Z,7.00
2019-02-14T05:10:45.295Z,6.80
2019-02-14T05:11:45.363Z,7.10
2019-02-14T05:12:45.549Z,7.10
2019-02-14T05:13:45.766Z,7.20
2019-02-14T05:14:45.835Z,7.10
2019-02-14T05:15:46.021Z,6.90
2019-02-14T05:16:46.227Z,7.10
2019-02-14T05:17:46.369Z,7.80
2019-02-14T05:18:46.549Z,6.60
2019-02-14T05:19:46.817Z,7.00
2019-02-14T05:20:47.858Z,7.50
2019-02-14T05:21:47.115Z,7.20
2019-02-14T05:22:47.250Z,6.90
2019-02-14T05:23:47.303Z,7.60
2019-02-14T05:24:47.870Z,6.80
2019-02-14T05:25:47.742Z,7.20
2019-02-14T05:26:48.033Z,7.30
2019-02-14T05:27:48.228Z,6.80
2019-02-14T05:28:48.314Z,7.20
2019-02-14T05:29:48.436Z,6.90
2019-02-14T05:30:48.561Z,6.80
2019-02-14T05:31:48.586Z,7.00
2019-02-14T05:32:48.837Z,7.20
2019-02-14T05:33:49.140Z,7.10
2019-02-14T05:34:49.289Z,7.20
2019-02-14T05:35:49.436Z,7.30
2019-02-14T05:36:52.834Z,7.40
2019-02-14T05:37:49.676Z,7.10
2019-02-14T05:38:49.874Z,7.40
2019-02-14T05:39:50.085Z,6.90
2019-02-14T05:40:50.291Z,7.70
2019-02-14T05:41:50.539Z,7.90
2019-02-14T05:42:53.224Z,7.30
2019-02-14T05:43:52.384Z,7.10
2019-02-14T05:44:51.025Z,6.90
2019-02-14T05:45:51.213Z,7.20
2019-02-14T05:46:51.423Z,7.80
2019-02-14T05:47:51.651Z,6.70
2019-02-14T05:48:51.923Z,7.30
2019-02-14T05:49:51.985Z,6.90
2019-02-14T05:50:52.198Z,7.40
2019-02-14T05:51:52.409Z,7.20
2019-02-14T05:52:52.593Z,7.10
2019-02-14T05:53:52.774Z,7.30
2019-02-14T05:54:53.001Z,7.30
2019-02-14T05:55:53.171Z,8.10
2019-02-14T05:56:53.401Z,7.50
2019-02-14T05:57:53.683Z,7.10
2019-02-14T05:58:53.739Z,7.30
2019-02-14T05:59:53.874Z,7.20
2019-02-14T06:00:53.964Z,6.90
2019-02-14T06:01:54.947Z,6.90
2019-02-14T06:02:54.380Z,7.20
2019-02-14T06:03:54.438Z,7.40
2019-02-14T06:04:54.631Z,7.40
2019-02-14T06:05:54.807Z,7.00
2019-02-14T06:07:00.989Z,6.90
2019-02-14T06:07:55.239Z,7.50
2019-02-14T06:08:55.318Z,7.30
2019-02-14T06:09:55.517Z,7.60
2019-02-14T06:10:55.694Z,7.10
2019-02-14T06:11:55.920Z,7.40
2019-02-14T06:12:56.129Z,7.10
2019-02-14T06:13:56.344Z,7.40
2019-02-14T06:14:56.418Z,7.30
2019-02-14T06:15:59.237Z,7.50
2019-02-14T06:17:00.486Z,7.60
2019-02-14T06:17:57.841Z,7.20
2019-02-14T06:18:59.056Z,7.30
2019-02-14T06:19:58.258Z,7.00
2019-02-14T06:20:58.369Z,7.30
2019-02-14T06:22:00.230Z,7.10
2019-02-14T06:22:59.465Z,7.40
2019-02-14T06:23:59.035Z,7.00
2019-02-14T06:24:59.092Z,7.20
2019-02-14T06:26:00.188Z,7.70
2019-02-14T06:26:59.754Z,7.40
2019-02-14T06:27:58.464Z,7.50
2019-02-14T06:28:58.511Z,7.20
2019-02-14T06:29:58.707Z,7.50
2019-02-14T06:30:58.921Z,7.40
2019-02-14T06:31:59.799Z,7.70
2019-02-14T06:33:02.086Z,8.00
2019-02-14T06:33:59.491Z,8.40
2019-02-14T06:34:59.617Z,7.80
2019-02-14T06:35:59.814Z,7.80
2019-02-14T06:37:00.008Z,7.90
2019-02-14T06:38:00.251Z,7.50
2019-02-14T06:39:00.399Z,7.40
2019-02-14T06:40:00.724Z,7.30
2019-02-14T06:41:00.665Z,7.10
2019-02-14T06:42:00.760Z,7.40
2019-02-14T06:43:00.960Z,7.40
2019-02-14T06:44:01.153Z,7.30
2019-02-14T06:45:01.361Z,7.80
2019-02-14T06:46:02.127Z,7.20
2019-02-14T06:47:01.693Z,7.30
2019-02-14T06:48:01.899Z,7.10
2019-02-14T06:49:02.091Z,7.00
2019-02-14T06:50:02.273Z,6.40
2019-02-14T06:51:03.747Z,7.20
2019-02-14T06:52:05.686Z,7.10
2019-02-14T06:53:02.863Z,7.10
2019-02-14T06:54:03.063Z,6.80
2019-02-14T06:55:03.250Z,7.50
2019-02-14T06:56:03.429Z,7.20
2019-02-14T06:57:03.636Z,7.60
2019-02-14T06:58:03.812Z,7.70
2019-02-14T06:59:04.009Z,7.10
2019-02-14T07:00:04.238Z,7.50
2019-02-14T07:01:04.311Z,7.50
2019-02-14T07:02:04.528Z,7.60
2019-02-14T07:03:04.713Z,7.80
2019-02-14T07:04:06.312Z,7.50
2019-02-14T07:05:05.031Z,7.40
2019-02-14T07:06:05.234Z,7.20
2019-02-14T07:07:05.472Z,7.60
2019-02-14T07:08:05.530Z,7.80
2019-02-14T07:09:05.737Z,7.50
2019-02-14T07:10:05.946Z,7.50
2019-02-14T07:11:06.140Z,7.60
2019-02-14T07:12:07.771Z,7.30
2019-02-14T07:13:06.536Z,7.70
2019-02-14T07:14:06.621Z,7.40
2019-02-14T07:15:06.877Z,7.20
2019-02-14T07:16:06.982Z,7.20
2019-02-14T07:17:07.041Z,7.40
2019-02-14T07:18:07.256Z,7.90
2019-02-14T07:19:07.451Z,7.50
2019-02-14T07:20:07.684Z,7.60
2019-02-14T07:21:07.878Z,8.20
2019-02-14T07:22:08.069Z,7.50
2019-02-14T07:23:08.293Z,9.70
2019-02-14T07:24:08.378Z,9.50
2019-02-14T07:25:08.565Z,9.50
2019-02-14T07:26:08.750Z,9.10
2019-02-14T07:27:09.049Z,9.50
2019-02-14T07:28:09.203Z,8.30
2019-02-14T07:29:09.411Z,8.20
2019-02-14T07:30:09.510Z,8.20
2019-02-14T07:31:09.636Z,9.00
2019-02-14T07:32:09.725Z,8.30
2019-02-14T07:33:09.914Z,8.00
2019-02-14T07:34:10.115Z,8.50
2019-02-14T07:35:10.410Z,9.80
2019-02-14T07:36:10.517Z,12.10
2019-02-14T07:37:10.708Z,10.30
2019-02-14T07:38:10.901Z,11.10
2019-02-14T07:39:11.188Z,11.50
2019-02-14T07:40:11.194Z,13.30
2019-02-14T07:41:11.379Z,11.70
2019-02-14T07:42:11.623Z,11.20
2019-02-14T07:43:11.707Z,11.00
2019-02-14T07:44:11.886Z,10.10
2019-02-14T07:45:12.068Z,8.90
2019-02-14T07:46:12.288Z,8.30
2019-02-14T07:47:12.390Z,8.10
2019-02-14T07:48:12.510Z,7.80
2019-02-14T07:49:12.935Z,7.80
2019-02-14T07:50:13.179Z,8.10
2019-02-14T07:51:14.432Z,7.80
2019-02-14T07:52:13.162Z,7.50
2019-02-14T07:53:13.453Z,7.90
2019-02-14T07:54:13.889Z,7.60
2019-02-14T07:55:13.649Z,7.90
2019-02-14T07:56:14.012Z,7.30
2019-02-14T07:57:13.872Z,7.30
2019-02-14T07:58:14.929Z,7.40
2019-02-14T07:59:15.348Z,6.80
2019-02-14T08:00:14.505Z,6.90
2019-02-14T08:01:15.144Z,7.50
2019-02-14T08:02:15.906Z,7.60
2019-02-14T08:03:15.269Z,8.30
2019-02-14T08:04:15.538Z,8.30
2019-02-14T08:05:15.238Z,7.90
2019-02-14T08:06:16.304Z,8.70
2019-02-14T08:07:15.763Z,8.30
2019-02-14T08:08:16.043Z,7.50
2019-02-14T08:09:17.063Z,7.00
2019-02-14T08:10:15.998Z,6.90
2019-02-14T08:11:17.614Z,7.50
2019-02-14T08:12:17.272Z,6.90
2019-02-14T08:13:16.920Z,6.40
2019-02-14T08:14:16.773Z,6.00
2019-02-14T08:15:17.142Z,6.20
2019-02-14T08:16:17.266Z,5.90
2019-02-14T08:17:17.278Z,5.60
2019-02-14T08:18:17.736Z,5.40
2019-02-14T08:19:17.522Z,5.90
2019-02-14T08:20:17.817Z,5.50
2019-02-14T08:21:17.985Z,5.50
2019-02-14T08:22:18.189Z,6.20
2019-02-14T08:23:18.137Z,5.30
2019-02-14T08:24:18.106Z,5.50
2019-02-14T08:25:18.406Z,5.50
2019-02-14T08:26:18.464Z,5.40
2019-02-14T08:27:18.712Z,5.70
2019-02-14T08:28:18.812Z,5.80
2019-02-14T08:29:19.291Z,5.20
2019-02-14T08:30:19.114Z,5.40
2019-02-14T08:31:20.422Z,5.60
2019-02-14T08:32:19.413Z,5.40
2019-02-14T08:33:19.638Z,5.90
2019-02-14T08:34:19.889Z,6.00
2019-02-14T08:35:21.667Z,6.00
2019-02-14T08:36:19.938Z,5.60
2019-02-14T08:37:20.372Z,5.40
2019-02-14T08:38:20.450Z,5.90
2019-02-14T08:39:20.720Z,5.80
2019-02-14T08:40:20.477Z,5.70
2019-02-14T08:41:20.735Z,6.00
2019-02-14T08:42:20.825Z,6.60
2019-02-14T08:43:20.941Z,7.10
2019-02-14T08:44:21.215Z,7.50
2019-02-14T08:45:21.597Z,7.10
2019-02-14T08:46:21.714Z,6.60
2019-02-14T08:47:21.749Z,6.50
2019-02-14T08:48:21.814Z,5.90
2019-02-14T08:49:22.216Z,6.60
2019-02-14T08:50:22.153Z,5.80
2019-02-14T08:51:23.887Z,5.60
2019-02-14T08:52:22.868Z,5.80
2019-02-14T08:53:22.983Z,6.10
2019-02-14T08:54:23.008Z,6.70
2019-02-14T08:55:23.422Z,6.30
2019-02-14T08:56:24.259Z,6.40
2019-02-14T08:57:23.876Z,6.00
2019-02-14T08:58:23.563Z,5.90
2019-02-14T08:59:23.619Z,5.90
2019-02-14T09:00:24.513Z,5.60
2019-02-14T09:01:24.061Z,5.60
2019-02-14T09:02:24.320Z,5.40
2019-02-14T09:03:24.357Z,6.00
2019-02-14T09:04:24.586Z,6.10
2019-02-14T09:05:24.739Z,5.70
2019-02-14T09:06:24.835Z,6.40
2019-02-14T09:07:25.146Z,6.60
2019-02-14T09:08:26.393Z,6.20
2019-02-14T09:09:25.499Z,6.70
2019-02-14T09:10:25.670Z,6.50
2019-02-14T09:11:25.808Z,5.80
2019-02-14T09:12:26.040Z,6.00
2019-02-14T09:13:29.951Z,6.00
2019-02-14T09:14:26.133Z,6.20
2019-02-14T09:15:26.296Z,5.90
2019-02-14T09:16:26.400Z,5.70
2019-02-14T09:17:26.511Z,6.30
2019-02-14T09:18:29.958Z,5.80
2019-02-14T09:19:27.002Z,5.50
2019-02-14T09:20:26.946Z,6.00
2019-02-14T09:21:27.264Z,6.10
2019-02-14T09:22:27.421Z,6.50
2019-02-14T09:23:27.516Z,6.70
2019-02-14T09:24:27.829Z,6.50
2019-02-14T09:25:27.888Z,6.40
2019-02-14T09:26:28.137Z,6.40
2019-02-14T09:27:28.237Z,6.40
2019-02-14T09:28:28.680Z,6.30
2019-02-14T09:29:28.618Z,6.50
2019-02-14T09:30:28.736Z,6.60
2019-02-14T09:31:29.096Z,6.60
2019-02-14T09:32:28.891Z,6.70
2019-02-14T09:33:29.101Z,6.30
2019-02-14T09:34:29.557Z,6.50
2019-02-14T09:35:29.705Z,6.40
2019-02-14T09:36:29.796Z,6.80
2019-02-14T09:37:29.925Z,6.00
2019-02-14T09:38:30.911Z,6.10
2019-02-14T09:39:30.121Z,6.20
2019-02-14T09:40:30.330Z,6.10
2019-02-14T09:41:30.569Z,6.30
2019-02-14T09:42:30.870Z,6.30
2019-02-14T09:43:30.897Z,6.10
2019-02-14T09:44:31.097Z,6.70
2019-02-14T09:45:31.159Z,6.20
2019-02-14T09:46:31.378Z,5.90
2019-02-14T09:47:34.293Z,6.00
2019-02-14T09:48:31.621Z,6.50
2019-02-14T09:49:31.948Z,6.50
2019-02-14T09:50:31.865Z,6.70
2019-02-14T09:57:52.452Z,5.90
2019-02-14T09:58:52.395Z,6.40
2019-02-14T09:59:49.930Z,6.00
2019-02-14T10:00:57.715Z,6.20
2019-02-14T10:01:51.414Z,6.00
2019-02-14T10:02:52.907Z,5.70
2019-02-14T10:03:50.490Z,5.70
2019-02-14T10:04:50.367Z,6.30
2019-02-14T10:05:50.707Z,5.70
2019-02-14T10:06:50.765Z,5.90
2019-02-14T10:07:59.097Z,5.90
2019-02-14T10:08:53.876Z,5.70
2019-02-14T10:09:51.158Z,5.40
2019-02-14T10:11:24.522Z,6.40
2019-02-14T10:11:55.158Z,5.80
2019-02-14T10:12:51.625Z,5.40
2019-02-14T10:13:58.890Z,5.40
2019-02-14T10:14:53.413Z,5.50
2019-02-14T10:15:56.274Z,5.60
2019-02-14T10:17:08.259Z,5.90
2019-02-14T10:18:21.576Z,5.50
2019-02-14T10:19:03.383Z,5.80
2019-02-14T10:19:53.105Z,6.10
2019-02-14T10:20:53.139Z,5.60
2019-02-14T10:21:53.301Z,5.90
2019-02-14T10:22:53.467Z,5.80
2019-02-14T10:23:53.653Z,6.00
2019-02-14T10:24:53.974Z,5.80
2019-02-14T10:25:54.057Z,6.00
2019-02-14T10:26:54.158Z,6.40
2019-02-14T10:27:56.393Z,6.70
2019-02-14T10:28:54.617Z,6.70
2019-02-14T10:29:54.634Z,6.50
2019-02-14T10:30:54.808Z,6.30
2019-02-14T10:31:54.920Z,6.20
2019-02-14T10:32:55.190Z,5.70
2019-02-14T10:33:56.772Z,5.80
2019-02-14T10:34:55.997Z,5.40
2019-02-14T10:35:58.386Z,5.30
2019-02-14T10:36:58.698Z,4.90
2019-02-14T10:37:59.744Z,4.70
2019-02-14T10:38:56.380Z,5.20
2019-02-14T10:39:58.167Z,5.00
2019-02-14T10:40:56.408Z,5.20
2019-02-14T10:41:56.575Z,4.80
2019-02-14T10:42:56.711Z,4.80
2019-02-14T10:43:56.785Z,5.00
2019-02-14T10:44:57.025Z,4.90
2019-02-14T10:45:57.395Z,5.50
2019-02-14T10:46:59.268Z,5.20
2019-02-14T10:47:59.063Z,5.50
2019-02-14T10:48:57.857Z,5.20
2019-02-14T10:49:59.765Z,5.20
2019-02-14T10:50:59.832Z,4.70
2019-02-14T10:51:58.298Z,5.20
2019-02-14T10:52:58.368Z,4.70
2019-02-14T10:53:58.804Z,5.00
2019-02-14T10:54:58.785Z,6.10
2019-02-14T10:55:59.020Z,6.50
2019-02-14T10:56:59.142Z,6.70
2019-02-14T10:57:59.229Z,6.20
2019-02-14T10:59:01.574Z,5.80
2019-02-14T10:59:59.512Z,5.10
2019-02-14T11:00:59.665Z,5.20
2019-02-14T11:01:59.874Z,5.10
2019-02-14T11:02:59.930Z,5.00
2019-02-14T11:04:01.163Z,4.80
2019-02-14T11:05:00.265Z,5.30
2019-02-14T11:06:00.391Z,4.90
2019-02-14T11:07:00.506Z,4.70
2019-02-14T11:08:00.681Z,5.40
2019-02-14T11:09:00.770Z,4.90
2019-02-14T11:14:38.555Z,5.00
2019-02-14T11:15:38.783Z,4.80
2019-02-14T11:16:38.958Z,5.20
2019-02-14T11:17:39.226Z,5.10
2019-02-14T11:18:44.238Z,5.50
2019-02-14T11:19:39.735Z,4.90
2019-02-14T11:20:39.698Z,4.70
2019-02-14T11:21:39.929Z,4.90
2019-02-14T11:22:40.160Z,4.70
2019-02-14T11:23:40.280Z,4.20
2019-02-14T11:24:40.364Z,4.90
2019-02-14T11:25:40.592Z,4.80
2019-02-14T11:26:40.677Z,4.70
2019-02-14T11:27:40.797Z,4.70
2019-02-14T11:28:41.050Z,4.70
2019-02-14T11:29:41.129Z,4.80
2019-02-14T11:30:41.329Z,4.60
2019-02-14T11:31:41.523Z,4.70
2019-02-14T11:32:41.642Z,5.20
2019-02-14T11:33:41.766Z,4.50
2019-02-14T11:34:41.857Z,4.90
2019-02-14T11:35:42.547Z,5.10
2019-02-14T11:36:42.292Z,4.80
2019-02-14T11:37:42.405Z,4.40
2019-02-14T11:38:42.532Z,4.80
2019-02-14T11:39:42.628Z,4.20
2019-02-14T11:40:42.818Z,4.30
2019-02-14T11:41:43.172Z,4.40
2019-02-14T11:42:43.244Z,4.50
2019-02-14T11:43:43.459Z,4.10
2019-02-14T11:44:43.600Z,4.20
2019-02-14T11:45:43.724Z,4.10
2019-02-14T11:46:51.277Z,4.50
2019-02-14T11:47:45.785Z,4.10
2019-02-14T11:48:44.558Z,4.10
2019-02-14T11:49:45.278Z,4.50
2019-02-14T11:50:47.376Z,4.30
2019-02-14T11:51:46.066Z,4.60
2019-02-14T11:52:46.985Z,4.30
2019-02-14T11:53:46.536Z,4.30
2019-02-14T11:54:46.656Z,4.60
2019-02-14T11:55:45.722Z,4.60
2019-02-14T11:56:45.406Z,4.60
2019-02-14T11:57:46.319Z,5.00
2019-02-14T11:58:46.226Z,4.70
2019-02-14T11:59:45.926Z,4.90
2019-02-14T12:00:46.032Z,5.40
2019-02-14T12:01:55.007Z,5.10
2019-02-14T12:02:54.751Z,5.40
2019-02-14T12:03:46.759Z,5.10
2019-02-14T12:04:47.098Z,4.90
2019-02-14T12:05:47.170Z,4.90
2019-02-14T12:06:47.332Z,4.40
2019-02-14T12:07:47.386Z,4.70
2019-02-14T12:08:59.398Z,4.60
2019-02-14T12:09:47.671Z,4.50
2019-02-14T12:10:48.155Z,4.50
2019-02-14T12:11:48.071Z,4.60
2019-02-14T12:12:48.247Z,4.50
2019-02-14T12:13:48.293Z,4.40
2019-02-14T12:14:48.461Z,4.10
2019-02-14T12:15:48.683Z,4.00
2019-02-14T12:16:48.884Z,4.00
2019-02-14T12:17:49.064Z,4.30
2019-02-14T12:18:49.228Z,4.50
2019-02-14T12:19:49.419Z,4.20
2019-02-14T12:20:49.642Z,4.30
2019-02-14T12:21:50.074Z,3.90
2019-02-14T12:22:50.271Z,3.80
2019-02-14T12:23:50.356Z,4.20
2019-02-14T12:24:50.501Z,4.00
2019-02-14T12:25:50.412Z,4.50
2019-02-14T12:26:50.635Z,4.00
2019-02-14T12:27:51.511Z,4.70
2019-02-14T12:28:50.914Z,4.00
2019-02-14T12:29:51.474Z,4.50
2019-02-14T12:30:51.418Z,4.30
2019-02-14T12:31:51.510Z,4.60
2019-02-14T12:32:51.674Z,4.10
2019-02-14T12:33:51.849Z,4.70
2019-02-14T12:34:52.046Z,4.30
2019-02-14T12:35:52.205Z,4.20
2019-02-14T12:36:52.365Z,4.40
2019-02-14T12:37:52.750Z,4.80
2019-02-14T12:38:52.767Z,3.90
2019-02-14T12:39:52.839Z,4.60
2019-02-14T12:40:53.015Z,4.20
2019-02-14T12:41:53.209Z,4.20
2019-02-14T12:42:53.364Z,4.40
2019-02-14T12:43:53.558Z,4.10
2019-02-14T12:44:55.596Z,4.40
2019-02-14T12:45:53.887Z,3.90
2019-02-14T12:46:57.608Z,4.10
2019-02-14T12:54:31.780Z,3.40
2019-02-14T12:55:05.260Z,3.30
2019-02-14T12:56:05.373Z,3.90
2019-02-14T12:57:05.896Z,4.20
2019-02-14T12:58:07.619Z,3.70
2019-02-14T12:59:05.819Z,3.40
2019-02-14T13:00:06.057Z,3.60
2019-02-14T13:01:06.139Z,3.70
2019-02-14T13:02:06.373Z,3.30
2019-02-14T13:03:06.541Z,3.50
2019-02-14T13:04:06.914Z,3.00
2019-02-14T13:05:06.866Z,3.30
2019-02-14T13:06:07.341Z,3.50
2019-02-14T13:07:08.203Z,3.70
2019-02-14T13:08:15.316Z,3.90
2019-02-14T13:09:07.608Z,3.50
2019-02-14T13:10:08.596Z,3.80
2019-02-14T13:11:07.828Z,3.60
2019-02-14T13:12:08.067Z,3.40
2019-02-14T13:13:08.336Z,3.40
2019-02-14T13:14:09.393Z,3.60
2019-02-14T13:15:10.520Z,3.80
2019-02-14T13:16:08.761Z,3.40
2019-02-14T13:17:08.961Z,3.90
2019-02-14T13:18:09.481Z,3.80
2019-02-14T13:19:09.326Z,3.70
2019-02-14T13:20:09.364Z,3.50
2019-02-14T13:21:14.286Z,3.50
2019-02-14T13:22:11.567Z,3.60
2019-02-14T13:23:10.671Z,3.70
2019-02-14T13:24:12.163Z,3.80
2019-02-14T13:25:10.169Z,3.50
2019-02-14T13:26:12.155Z,3.90
2019-02-14T13:27:10.536Z,3.40
2019-02-14T13:28:13.889Z,3.70
2019-02-14T13:29:11.059Z,3.80
2019-02-14T13:30:11.100Z,3.40
2019-02-14T13:31:12.069Z,3.50
2019-02-14T13:32:13.535Z,4.10
2019-02-14T13:33:11.432Z,3.90
2019-02-14T13:34:13.253Z,4.00
2019-02-14T13:35:13.219Z,3.80
2019-02-14T13:36:14.714Z,3.90
2019-02-14T13:37:14.337Z,3.70
2019-02-14T13:38:14.290Z,3.50